Time;durP1;ratioP1;P1;durP2;ratioP2;P2;SDS_P1;SDS_P2;PMS_P1;PMS_P2;Temp;Humidity;BMP_temperature;BMP_pressure;BME280_temperature;BME280_humidity;BME280_pressure;Samples;Min_cycle;Max_cycle;Signal;HPM_P1;HPM_P2
2023/09/17 00:02:32;;;;;;;;;;;;;;;22.16;50.99;99177.89;67831;1277;1016106;-67
2023/09/17 00:05:34;;;;;;;24.60;9.20;;;;;;;22.22;51.11;99175.93;67840;1277;1016416;-66
2023/09/17 00:08:37;;;;;;;;;;;;;;;22.26;51.04;99170.61;67797;1277;1016522;-66
2023/09/17 00:11:39;;;;;;;24.00;8.80;;;;;;;22.30;51.07;99168.30;67851;1277;1016217;-68
2023/09/17 00:14:41;;;;;;;;;;;;;;;22.31;51.05;99166.42;67839;1277;1016420;-66
2023/09/17 00:17:44;;;;;;;23.70;9.40;;;;;;;22.29;51.24;99159.66;67828;1277;1016409;-66
2023/09/17 00:20:46;;;;;;;23.20;8.60;;;;;;;22.24;51.17;99153.93;67820;1277;1016446;-69
2023/09/17 00:23:49;;;;;;;;;;;;;;;22.18;51.37;99154.98;67870;1277;1015952;-67
2023/09/17 00:26:51;;;;;;;22.70;8.90;;;;;;;22.20;51.34;99158.15;67858;1277;1015971;-67
2023/09/17 00:29:53;;;;;;;;;;;;;;;22.14;51.50;99158.36;67837;1277;1016393;-67
2023/09/17 00:32:56;;;;;;;23.20;8.90;;;;;;;22.09;51.65;99163.86;67835;1277;1016268;-67
2023/09/17 00:35:58;;;;;;;23.00;8.90;;;;;;;22.21;51.41;99159.30;67803;1277;1016475;-67
2023/09/17 00:39:01;;;;;;;23.80;9.40;;;;;;;22.17;51.30;99158.41;67798;1277;1016495;-66
2023/09/17 00:42:03;;;;;;;23.10;9.00;;;;;;;22.07;51.59;99161.44;67833;1277;1016454;-67
2023/09/17 00:45:05;;;;;;;;;;;;;;;22.10;51.55;99164.16;67871;1277;1015959;-66
2023/09/17 00:48:08;;;;;;;23.90;8.80;;;;;;;22.03;51.68;99160.89;67854;1277;1016384;-67
2023/09/17 00:51:10;;;;;;;;;;;;;;;21.99;51.75;99159.04;67827;1277;1018901;-69
2023/09/17 00:54:13;;;;;;;23.80;9.60;;;;;;;21.98;51.79;99155.36;67816;1277;1016250;-67
2023/09/17 00:57:16;;;;;;;24.20;8.90;;;;;;;22.03;51.72;99151.27;67813;1277;1016435;-68
2023/09/17 01:00:21;;;;;;;23.10;8.50;;;;;;;22.04;51.80;99160.79;67837;1277;1016234;-67
2023/09/17 01:03:23;;;;;;;24.90;9.00;;;;;;;22.03;51.75;99155.75;67787;1277;1016015;-67
2023/09/17 01:06:26;;;;;;;;;;;;;;;22.00;51.83;99154.86;67849;1277;1016421;-67
2023/09/17 01:09:28;;;;;;;24.40;8.90;;;;;;;22.01;51.84;99152.23;67845;1277;1016660;-67
2023/09/17 01:12:31;;;;;;;23.80;9.10;;;;;;;21.97;51.91;99149.73;67808;1277;1015726;-67
2023/09/17 01:15:34;;;;;;;;;;;;;;;22.01;51.97;99151.23;67809;1277;1016405;-69
2023/09/17 01:18:36;;;;;;;24.40;9.10;;;;;;;22.02;51.86;99150.89;67841;1277;1016388;-67
2023/09/17 01:21:39;;;;;;;24.80;9.70;;;;;;;21.97;51.89;99149.47;67786;1277;1016856;-68
2023/09/17 01:24:43;;;;;;;24.40;10.10;;;;;;;21.89;51.93;99152.56;67824;1277;1016254;-68
2023/09/17 01:27:46;;;;;;;22.30;8.70;;;;;;;21.80;52.11;99152.98;67860;1277;1016413;-66
2023/09/17 01:30:48;;;;;;;;;;;;;;;21.71;52.37;99149.27;67848;1277;1016472;-67
2023/09/17 01:33:51;;;;;;;25.80;9.50;;;;;;;21.71;52.47;99147.26;67883;1277;1016257;-67
2023/09/17 01:36:53;;;;;;;;;;;;;;;21.68;52.35;99143.56;67826;1277;1016248;-69
2023/09/17 01:39:56;;;;;;;26.50;9.40;;;;;;;21.65;52.51;99143.48;67813;1277;1016590;-66
2023/09/17 01:42:58;;;;;;;22.60;9.10;;;;;;;21.65;52.41;99145.75;67817;1277;1016474;-68
2023/09/17 01:46:00;;;;;;;25.40;8.50;;;;;;;21.65;52.28;99145.23;67864;1277;1016505;-66
2023/09/17 01:49:03;;;;;;;23.60;9.60;;;;;;;21.63;52.35;99142.46;67850;1277;1016804;-66
2023/09/17 01:52:05;;;;;;;25.40;9.40;;;;;;;21.52;52.56;99140.31;67820;1277;1016267;-67
2023/09/17 01:55:09;;;;;;;;;;;;;;;21.66;52.42;99136.21;67811;1277;1016480;-66
2023/09/17 01:58:12;;;;;;;22.60;9.00;;;;;;;21.79;52.18;99134.36;67826;1277;1016223;-66
2023/09/17 02:01:15;;;;;;;;;;;;;;;21.84;52.05;99131.42;67856;1277;1016392;-67
2023/09/17 02:04:17;;;;;;;26.40;9.50;;;;;;;21.79;52.22;99132.61;67868;1277;1016494;-69
2023/09/17 02:07:19;;;;;;;;;;;;;;;21.86;52.09;99135.60;67832;1277;1016289;-67
2023/09/17 02:10:22;;;;;;;23.10;9.10;;;;;;;21.93;52.00;99132.77;67805;1277;1016052;-66
2023/09/17 02:13:24;;;;;;;;;;;;;;;21.87;52.12;99131.94;67865;1277;1016351;-66
2023/09/17 02:16:27;;;;;;;22.90;8.70;;;;;;;21.75;52.33;99132.51;67839;1277;1018210;-67
2023/09/17 02:19:29;;;;;;;26.40;9.80;;;;;;;21.71;52.53;99128.05;67828;1277;1016390;-67
2023/09/17 02:22:31;;;;;;;23.40;8.80;;;;;;;21.68;52.60;99128.78;67830;1277;1016514;-66
2023/09/17 02:25:34;;;;;;;22.40;9.10;;;;;;;21.59;52.81;99122.89;67793;1276;1017105;-67
2023/09/17 02:28:36;;;;;;;26.80;9.40;;;;;;;21.60;52.93;99122.64;67883;1277;1016547;-68
2023/09/17 02:31:39;;;;;;;23.20;9.10;;;;;;;21.62;52.92;99126.70;67849;1277;1016150;-66
2023/09/17 02:34:41;;;;;;;23.00;9.00;;;;;;;21.55;52.88;99127.55;67860;1277;1016963;-68
2023/09/17 02:37:44;;;;;;;23.70;9.20;;;;;;;21.64;52.85;99128.09;67817;1277;1016388;-69
2023/09/17 02:40:46;;;;;;;;;;;;;;;21.69;52.77;99127.77;67840;1277;1017050;-66
2023/09/17 02:43:48;;;;;;;24.10;9.70;;;;;;;21.49;53.24;99124.73;67812;1277;1016307;-66
2023/09/17 02:46:51;;;;;;;22.60;9.70;;;;;;;21.45;53.30;99127.10;67857;1277;1016324;-69
2023/09/17 02:49:53;;;;;;;24.30;10.10;;;;;;;21.45;53.25;99131.42;67843;1277;1016308;-67
2023/09/17 02:52:56;;;;;;;24.20;9.70;;;;;;;21.44;53.15;99129.33;67843;1277;1016802;-67
2023/09/17 02:55:58;;;;;;;22.90;9.20;;;;;;;21.45;53.31;99134.21;67805;1277;1016245;-66
2023/09/17 02:59:01;;;;;;;;;;;;;;;21.45;53.24;99134.48;67838;1277;1016502;-66
2023/09/17 03:02:03;;;;;;;23.60;9.40;;;;;;;21.43;53.45;99138.23;67865;1277;1016225;-66
2023/09/17 03:05:09;;;;;;;23.30;9.50;;;;;;;21.43;53.44;99133.56;67844;1277;1017085;-66
2023/09/17 03:08:12;;;;;;;22.40;9.40;;;;;;;21.46;53.40;99133.21;67809;1277;1016478;-66
2023/09/17 03:11:17;;;;;;;22.10;9.10;;;;;;;21.45;53.55;99135.55;67810;1277;1016425;-66
2023/09/17 03:14:20;;;;;;;26.00;10.30;;;;;;;21.53;53.17;99128.25;67863;1277;1016338;-67
2023/09/17 03:17:22;;;;;;;24.10;9.40;;;;;;;21.42;53.49;99125.15;67812;1277;1016488;-67
2023/09/17 03:20:25;;;;;;;;;;;;;;;21.41;53.62;99123.58;67871;1277;1016242;-66
2023/09/17 03:23:27;;;;;;;;;;;;;;;21.33;53.76;99125.65;67875;1277;1016345;-67
2023/09/17 03:26:30;;;;;;;22.40;9.50;;;;;;;21.33;53.84;99121.08;67836;1277;1016875;-66
2023/09/17 03:29:32;;;;;;;23.50;9.70;;;;;;;21.27;53.88;99120.74;67821;1277;1017872;-67
2023/09/17 03:32:34;;;;;;;24.90;9.60;;;;;;;21.33;53.93;99122.97;67811;1262;1017127;-66
2023/09/17 03:35:37;;;;;;;25.00;10.20;;;;;;;21.28;53.87;99122.98;67848;1277;1016207;-66
2023/09/17 03:38:39;;;;;;;24.30;9.70;;;;;;;21.36;53.90;99126.24;67858;1277;1016115;-66
2023/09/17 03:41:42;;;;;;;24.40;10.10;;;;;;;21.41;53.75;99125.38;67809;1277;1016367;-66
2023/09/17 03:44:44;;;;;;;24.20;9.60;;;;;;;21.36;53.78;99122.14;67794;1277;1016476;-66
2023/09/17 03:47:47;;;;;;;23.40;9.70;;;;;;;21.29;54.10;99117.69;67864;1277;1016823;-66
2023/09/17 03:50:49;;;;;;;23.30;10.40;;;;;;;21.34;54.10;99117.62;67845;1277;1016407;-65
2023/09/17 03:53:52;;;;;;;22.80;9.50;;;;;;;21.28;54.18;99122.95;67841;1277;1017894;-66
2023/09/17 03:56:54;;;;;;;23.10;10.20;;;;;;;21.48;53.88;99125.77;67809;1277;1016419;-66
2023/09/17 03:59:56;;;;;;;23.40;9.90;;;;;;;21.55;53.84;99125.26;67822;1277;1016615;-66
2023/09/17 04:02:59;;;;;;;24.20;10.00;;;;;;;21.56;53.88;99127.14;67824;1277;1016081;-65
2023/09/17 04:06:03;;;;;;;27.00;10.40;;;;;;;21.52;53.94;99128.17;67848;1277;1016949;-65
2023/09/17 04:09:07;;;;;;;22.50;9.50;;;;;;;21.52;54.00;99128.22;67859;1277;1016230;-66
2023/09/17 04:12:10;;;;;;;24.40;9.30;;;;;;;21.50;54.01;99126.52;67847;1277;1016417;-66
2023/09/17 04:15:16;;;;;;;24.30;9.80;;;;;;;21.51;54.06;99133.83;67834;1277;1016701;-66
2023/09/17 04:18:19;;;;;;;23.60;9.90;;;;;;;21.52;53.95;99135.55;67802;1277;1016827;-66
2023/09/17 04:21:21;;;;;;;;;;;;;;;21.48;54.03;99135.38;67813;1277;1016140;-67
2023/09/17 04:24:23;;;;;;;25.20;10.00;;;;;;;21.51;53.96;99137.97;67838;1277;1016452;-66
2023/09/17 04:27:26;;;;;;;23.70;9.30;;;;;;;21.53;54.01;99137.15;67817;1277;1016446;-68
2023/09/17 04:30:29;;;;;;;22.80;9.20;;;;;;;21.63;54.01;99142.56;67819;1277;1016329;-66
2023/09/17 04:33:32;;;;;;;24.90;9.90;;;;;;;21.74;53.89;99143.63;67869;1277;1016220;-66
2023/09/17 04:36:34;;;;;;;24.00;10.00;;;;;;;21.74;53.73;99139.14;67854;1277;1016393;-65
2023/09/17 04:39:37;;;;;;;24.40;10.50;;;;;;;21.71;53.77;99142.55;67811;1277;1016421;-65
2023/09/17 04:42:40;;;;;;;23.60;9.90;;;;;;;21.59;53.80;99144.54;67775;1277;1016464;-65
2023/09/17 04:45:43;;;;;;;24.30;9.70;;;;;;;21.58;53.97;99148.64;67800;1277;1016088;-67
2023/09/17 04:48:45;;;;;;;23.90;9.50;;;;;;;21.56;54.20;99148.48;67808;1276;1016410;-67
2023/09/17 04:51:47;;;;;;;25.20;9.10;;;;;;;21.69;53.90;99151.05;67816;1277;1015999;-65
2023/09/17 04:54:50;;;;;;;24.00;9.90;;;;;;;21.73;53.87;99148.67;67788;1277;1018871;-65
2023/09/17 04:57:52;;;;;;;23.70;9.40;;;;;;;21.78;53.72;99152.67;67855;1277;1016278;-65
2023/09/17 05:00:54;;;;;;;;;;;;;;;21.82;53.87;99155.04;67834;1277;1016463;-66
2023/09/17 05:03:57;;;;;;;23.10;9.80;;;;;;;22.03;53.50;99155.44;67827;1277;1016009;-66
2023/09/17 05:07:00;;;;;;;24.30;9.40;;;;;;;22.09;53.45;99160.89;67824;1277;1016440;-68
2023/09/17 05:10:02;;;;;;;;;;;;;;;22.23;53.41;99166.33;67836;1277;1016920;-66
2023/09/17 05:13:05;;;;;;;25.00;9.50;;;;;;;22.25;53.40;99170.02;67847;1277;1016258;-69
2023/09/17 05:16:08;;;;;;;24.10;9.80;;;;;;;22.32;53.60;99169.27;67811;1277;1016454;-67
2023/09/17 05:19:10;;;;;;;25.90;9.70;;;;;;;22.55;53.24;99167.46;67820;1277;1016214;-67
2023/09/17 05:22:12;;;;;;;24.00;9.60;;;;;;;22.73;53.26;99169.29;67895;1277;1016369;-66
2023/09/17 05:25:15;;;;;;;27.20;10.30;;;;;;;23.06;53.09;99172.09;67854;1277;1017212;-66
2023/09/17 05:28:17;;;;;;;22.30;9.40;;;;;;;23.15;53.22;99172.13;67822;1277;1016414;-65
2023/09/17 05:31:20;;;;;;;;;;;;;;;23.34;53.04;99174.63;67809;1277;1016392;-66
2023/09/17 05:34:22;;;;;;;24.80;9.40;;;;;;;23.57;53.05;99177.58;67809;1277;1016336;-67
2023/09/17 05:37:25;;;;;;;23.60;9.30;;;;;;;23.80;53.02;99175.11;67820;1277;1015883;-69
2023/09/17 05:40:27;;;;;;;22.20;9.10;;;;;;;24.01;52.77;99182.69;67818;1277;1016116;-66
2023/09/17 05:43:29;;;;;;;;;;;;;;;24.17;52.51;99184.64;67814;1277;1018628;-67
2023/09/17 05:46:32;;;;;;;25.90;9.80;;;;;;;24.36;52.09;99187.99;67834;1277;1016483;-66
2023/09/17 05:49:34;;;;;;;;;;;;;;;24.37;52.32;99195.05;67831;1277;1016337;-66
2023/09/17 05:52:37;;;;;;;24.50;9.10;;;;;;;24.58;51.85;99202.14;67861;1277;1018032;-67
2023/09/17 05:55:39;;;;;;;24.10;9.60;;;;;;;24.47;52.37;99204.59;67843;1277;1015981;-66
2023/09/17 05:58:43;;;;;;;;;;;;;;;24.59;52.11;99203.48;67837;1277;1016160;-69
2023/09/17 06:01:45;;;;;;;23.20;8.90;;;;;;;24.65;51.88;99205.27;67845;1277;1016404;-69
2023/09/17 06:04:52;;;;;;;;;;;;;;;24.60;52.22;99197.48;67847;1277;1016476;-69
2023/09/17 06:07:55;;;;;;;24.80;9.70;;;;;;;24.76;52.33;99198.81;67879;1277;1016337;-66
2023/09/17 06:10:57;;;;;;;22.20;9.40;;;;;;;25.00;51.87;99199.64;67813;1277;1016288;-66
2023/09/17 06:14:00;;;;;;;;;;;;;;;25.15;51.93;99200.77;67808;1277;1016121;-66
2023/09/17 06:17:02;;;;;;;26.60;10.40;;;;;;;25.27;51.73;99208.05;67790;1276;1016353;-69
2023/09/17 06:20:05;;;;;;;;;;;;;;;25.38;51.51;99210.23;67867;1277;1016101;-69
2023/09/17 06:23:07;;;;;;;26.50;9.90;;;;;;;25.43;51.35;99210.36;67862;1277;1016515;-66
2023/09/17 06:26:09;;;;;;;;;;;;;;;25.63;51.36;99215.36;67893;1277;1016520;-69
2023/09/17 06:29:12;;;;;;;26.40;10.10;;;;;;;25.81;50.95;99211.61;67837;1277;1015960;-65
2023/09/17 06:32:14;;;;;;;;;;;;;;;25.89;50.77;99211.84;67849;1277;1016350;-68
2023/09/17 06:35:17;;;;;;;20.80;8.90;;;;;;;26.02;50.59;99211.41;67854;1277;1018717;-66
2023/09/17 06:38:19;;;;;;;;;;;;;;;26.06;50.74;99210.44;67877;1277;1017222;-66
2023/09/17 06:41:21;;;;;;;23.40;9.80;;;;;;;26.21;50.45;99210.61;67863;1277;1016453;-70
2023/09/17 06:44:24;;;;;;;;;;;;;;;26.29;50.40;99206.05;67829;1277;1016078;-67
2023/09/17 06:47:26;;;;;;;26.90;11.70;;;;;;;26.39;50.60;99206.99;67823;1277;1015903;-70
2023/09/17 06:50:29;;;;;;;;;;;;;;;26.66;50.19;99201.64;67846;1277;1015957;-67
2023/09/17 06:53:31;;;;;;;23.50;9.40;;;;;;;27.10;49.75;99204.29;67846;1277;1016921;-69
2023/09/17 06:56:34;;;;;;;21.60;8.60;;;;;;;27.40;49.38;99202.02;67878;1277;1016305;-67
2023/09/17 06:59:36;;;;;;;24.90;10.30;;;;;;;27.81;48.94;99202.16;67848;1277;1018930;-66
2023/09/17 07:02:38;;;;;;;21.20;8.90;;;;;;;28.09;48.72;99204.20;67825;1277;1016425;-66
2023/09/17 07:05:41;;;;;;;22.30;9.20;;;;;;;28.23;48.60;99212.73;67823;1277;1016926;-65
2023/09/17 07:08:43;;;;;;;23.10;8.40;;;;;;;28.36;48.38;99213.48;67834;1277;1015915;-64
2023/09/17 07:11:53;;;;;;;22.40;8.20;;;;;;;28.44;48.28;99212.02;67810;1277;1016431;-67
2023/09/17 07:14:56;;;;;;;22.00;7.70;;;;;;;28.77;47.85;99213.29;67832;1277;1016028;-66
2023/09/17 07:17:58;;;;;;;22.30;8.60;;;;;;;28.94;47.30;99214.98;67764;1277;1018192;-68
2023/09/17 07:21:01;;;;;;;21.00;8.00;;;;;;;28.98;47.17;99211.32;67824;1277;1016618;-67
2023/09/17 07:24:03;;;;;;;21.90;8.80;;;;;;;29.22;47.11;99213.09;67828;1277;1016645;-68
2023/09/17 07:27:06;;;;;;;21.90;8.30;;;;;;;29.57;46.84;99212.17;67776;1277;1016334;-65
2023/09/17 07:30:08;;;;;;;21.70;8.30;;;;;;;29.72;46.65;99213.50;67789;1277;1016424;-66
2023/09/17 07:33:11;;;;;;;21.30;8.10;;;;;;;30.07;46.26;99211.32;67797;1277;1016443;-65
2023/09/17 07:36:14;;;;;;;22.10;8.10;;;;;;;30.52;45.72;99214.29;67847;1277;1016470;-66
2023/09/17 07:39:17;;;;;;;22.00;8.20;;;;;;;30.65;45.48;99217.12;67831;1277;1016291;-65
2023/09/17 07:42:19;;;;;;;19.60;7.80;;;;;;;30.91;45.29;99211.66;67798;1277;1016353;-65
2023/09/17 07:45:21;;;;;;;23.40;7.80;;;;;;;31.01;44.96;99208.48;67822;1277;1016356;-66
2023/09/17 07:48:24;;;;;;;22.10;7.90;;;;;;;31.26;44.86;99209.24;67843;1277;1016345;-68
2023/09/17 07:51:27;;;;;;;21.00;7.70;;;;;;;31.61;44.14;99210.08;67803;1277;1016431;-68
2023/09/17 07:54:30;;;;;;;18.40;6.60;;;;;;;31.88;43.72;99205.14;67826;1277;1015858;-64
2023/09/17 07:57:32;;;;;;;20.80;7.30;;;;;;;32.04;43.71;99205.73;67859;1277;1016709;-68
2023/09/17 08:00:35;;;;;;;17.80;6.30;;;;;;;32.27;43.10;99207.54;67860;1277;1016466;-64
2023/09/17 08:03:37;;;;;;;19.10;6.00;;;;;;;32.26;42.84;99205.73;67813;1277;1016233;-67
2023/09/17 08:06:40;;;;;;;18.40;6.70;;;;;;;32.29;42.74;99201.61;67807;1277;1016455;-65
2023/09/17 08:09:42;;;;;;;17.60;6.00;;;;;;;32.58;42.34;99199.67;67845;1277;1016288;-68
2023/09/17 08:12:45;;;;;;;16.30;5.50;;;;;;;32.70;42.03;99197.02;67722;1277;1018768;-67
2023/09/17 08:15:49;;;;;;;16.80;5.50;;;;;;;32.73;41.69;99194.14;67710;1277;1020360;-66
2023/09/17 08:18:51;;;;;;;16.90;5.70;;;;;;;32.98;41.44;99198.11;67658;1277;1016082;-63
2023/09/17 08:21:54;;;;;;;16.00;5.70;;;;;;;33.06;41.11;99200.50;67672;1277;1017949;-66
2023/09/17 08:24:56;;;;;;;15.80;5.70;;;;;;;33.12;40.88;99196.90;67691;1277;1016510;-64
2023/09/17 08:27:59;;;;;;;17.70;6.30;;;;;;;33.28;40.56;99196.67;67701;1277;1016204;-67
2023/09/17 08:31:01;;;;;;;16.70;5.60;;;;;;;33.41;40.45;99200.61;67802;1277;1016144;-67
2023/09/17 08:34:03;;;;;;;13.60;4.80;;;;;;;33.58;40.05;99201.50;67809;1277;1016224;-65
2023/09/17 08:37:06;;;;;;;13.50;4.40;;;;;;;33.49;39.60;99202.02;67815;1278;1016396;-66
2023/09/17 08:40:10;;;;;;;14.30;4.70;;;;;;;33.35;39.38;99199.80;67874;1277;1018702;-65
2023/09/17 08:43:13;;;;;;;14.70;4.70;;;;;;;33.34;39.68;99200.10;67861;1277;1016749;-66
2023/09/17 08:46:16;;;;;;;13.90;5.10;;;;;;;33.37;38.77;99196.04;67812;1277;1015975;-65
2023/09/17 08:49:18;;;;;;;13.60;4.40;;;;;;;33.42;39.08;99199.16;67830;1277;1016810;-66
2023/09/17 08:52:21;;;;;;;11.80;4.10;;;;;;;33.43;38.39;99204.40;67889;1277;1017302;-64
2023/09/17 08:55:23;;;;;;;10.90;4.30;;;;;;;33.39;37.57;99201.10;67854;1277;1016298;-66
2023/09/17 08:58:25;;;;;;;13.90;4.30;;;;;;;33.44;37.94;99205.41;67802;1277;1016923;-66
2023/09/17 09:01:28;;;;;;;14.10;4.50;;;;;;;33.56;37.99;99202.09;67798;1277;1016507;-64
2023/09/17 09:04:30;;;;;;;13.80;5.00;;;;;;;33.71;37.64;99195.81;67813;1277;1016431;-64
2023/09/17 09:07:33;;;;;;;12.90;4.50;;;;;;;33.62;37.50;99199.80;67827;1277;1016796;-65
2023/09/17 09:10:35;;;;;;;14.30;4.70;;;;;;;33.95;37.72;99197.09;67594;1277;1219721;-67
2023/09/17 09:13:38;;;;;;;13.60;4.80;;;;;;;34.23;37.85;99198.05;67812;1277;1016122;-65
2023/09/17 09:16:40;;;;;;;12.30;4.70;;;;;;;34.33;36.07;99201.53;67815;1277;1016228;-66
2023/09/17 09:19:42;;;;;;;12.80;4.30;;;;;;;34.00;36.00;99197.00;67824;1277;1016346;-66
2023/09/17 09:22:45;;;;;;;13.00;4.50;;;;;;;34.22;36.71;99198.08;67856;1277;1016433;-65
2023/09/17 09:25:47;;;;;;;17.10;4.60;;;;;;;34.45;36.48;99192.95;67874;1277;1017594;-66
2023/09/17 09:28:49;;;;;;;11.40;4.20;;;;;;;34.63;36.33;99192.61;67809;1277;1016469;-64
2023/09/17 09:31:52;;;;;;;13.40;4.10;;;;;;;34.85;36.24;99191.67;67794;1277;1016483;-63
2023/09/17 09:34:55;;;;;;;12.80;4.10;;;;;;;35.08;35.82;99188.45;67825;1277;1016389;-66
2023/09/17 09:37:57;;;;;;;12.50;4.20;;;;;;;35.20;34.95;99189.27;67877;1277;1016448;-65
2023/09/17 09:40:59;;;;;;;10.40;4.10;;;;;;;35.48;34.74;99186.96;67832;1277;1016496;-66
2023/09/17 09:44:03;;;;;;;11.30;3.90;;;;;;;35.73;34.37;99184.62;67847;1277;1016401;-67
2023/09/17 09:47:06;;;;;;;13.30;4.20;;;;;;;35.86;33.74;99186.47;67867;1277;1016503;-64
2023/09/17 09:50:08;;;;;;;12.20;4.30;;;;;;;35.81;33.39;99184.59;67801;1277;1016507;-66
2023/09/17 09:53:11;;;;;;;12.90;3.90;;;;;;;35.63;33.30;99183.15;67827;1277;1015947;-65
2023/09/17 09:56:13;;;;;;;11.00;4.10;;;;;;;35.76;33.57;99183.78;67849;1277;1016373;-67
2023/09/17 09:59:16;;;;;;;14.20;4.00;;;;;;;36.02;33.23;99182.98;67870;1277;1016320;-67
2023/09/17 10:02:20;;;;;;;10.00;3.50;;;;;;;36.00;32.98;99178.16;67861;1277;1015920;-67
2023/09/17 10:05:23;;;;;;;9.50;3.30;;;;;;;35.53;32.39;99182.06;67794;1277;1018030;-66
2023/09/17 10:08:26;;;;;;;10.50;3.80;;;;;;;34.81;32.55;99179.98;67836;1259;1016471;-67
2023/09/17 10:11:30;;;;;;;10.40;3.70;;;;;;;34.90;33.62;99181.80;67847;1277;1016502;-65
2023/09/17 10:14:32;;;;;;;9.20;3.70;;;;;;;35.47;33.02;99181.70;67848;1277;1016443;-66
2023/09/17 10:17:36;;;;;;;10.30;3.60;;;;;;;35.39;32.89;99183.05;67863;1277;1016194;-66
2023/09/17 10:20:39;;;;;;;9.60;3.30;;;;;;;35.15;32.70;99181.58;67808;1277;1016353;-66
2023/09/17 10:23:42;;;;;;;9.60;3.40;;;;;;;35.52;32.91;99175.45;67833;1277;1017544;-66
2023/09/17 10:26:45;;;;;;;9.00;3.70;;;;;;;35.70;32.50;99170.44;67842;1277;1016466;-66
2023/09/17 10:29:49;;;;;;;11.50;3.70;;;;;;;35.44;32.65;99173.04;67793;1277;1017068;-65
2023/09/17 10:32:52;;;;;;;9.20;3.30;;;;;;;35.08;32.41;99173.56;67828;1277;1016502;-67
2023/09/17 10:35:55;;;;;;;11.00;3.70;;;;;;;34.78;32.82;99176.26;67835;1277;1016471;-66
2023/09/17 10:38:58;;;;;;;12.70;3.70;;;;;;;34.67;32.91;99179.02;67855;1277;1016410;-65
2023/09/17 10:42:01;;;;;;;10.30;3.50;;;;;;;34.68;33.05;99177.08;67851;1277;1017023;-65
2023/09/17 10:45:04;;;;;;;11.40;3.90;;;;;;;34.53;33.64;99181.19;67846;1277;1018260;-67
2023/09/17 10:48:08;;;;;;;10.00;3.90;;;;;;;34.15;33.88;99180.55;67837;1277;1016798;-64
2023/09/17 10:51:12;;;;;;;14.60;4.10;;;;;;;33.80;34.00;99181.73;67839;1277;1016380;-66
2023/09/17 10:54:14;;;;;;;14.20;4.60;;;;;;;33.57;34.49;99183.63;67837;1277;1016445;-66
2023/09/17 10:57:17;;;;;;;12.10;4.30;;;;;;;33.37;34.53;99181.15;67838;1277;1016411;-65
2023/09/17 11:00:22;;;;;;;14.00;4.60;;;;;;;33.27;35.05;99179.93;67855;1277;1016415;-66
2023/09/17 11:03:24;;;;;;;12.00;3.80;;;;;;;33.54;35.34;99182.80;67829;1277;1016352;-66
2023/09/17 11:06:26;;;;;;;9.90;3.90;;;;;;;33.78;35.04;99186.96;67828;1277;1016205;-66
2023/09/17 11:09:29;;;;;;;10.70;3.80;;;;;;;33.82;34.47;99184.73;67832;1277;1016245;-66
2023/09/17 11:12:31;;;;;;;10.10;3.90;;;;;;;33.76;34.54;99188.42;67875;1277;1016429;-65
2023/09/17 11:15:34;;;;;;;22.60;9.50;;;;;;;33.89;34.65;99189.29;67852;1277;1016209;-66
2023/09/17 11:18:36;;;;;;;23.60;10.20;;;;;;;34.07;34.39;99192.41;67841;1277;1016789;-66
2023/09/17 11:21:38;;;;;;;14.10;4.80;;;;;;;34.40;34.95;99186.80;67815;1277;1017809;-66
2023/09/17 11:24:41;;;;;;;13.70;3.90;;;;;;;34.76;34.69;99184.04;67794;1277;1016086;-67
2023/09/17 11:27:44;;;;;;;11.30;3.70;;;;;;;35.49;34.02;99182.55;67847;1277;1016433;-66
2023/09/17 11:30:46;;;;;;;10.20;3.70;;;;;;;36.04;32.62;99177.26;67825;1277;1016056;-66
2023/09/17 11:33:48;;;;;;;10.00;3.50;;;;;;;36.04;32.00;99174.39;67837;1277;1016714;-66
2023/09/17 11:36:51;;;;;;;9.40;3.70;;;;;;;35.93;31.53;99172.60;67797;1277;1016436;-66
2023/09/17 11:39:54;;;;;;;9.00;3.50;;;;;;;36.09;32.12;99169.58;67865;1277;1016439;-65
2023/09/17 11:42:57;;;;;;;10.20;3.80;;;;;;;36.44;32.45;99175.38;67824;1277;1016370;-64
2023/09/17 11:46:00;;;;;;;7.90;3.20;;;;;;;36.82;31.40;99174.94;67861;1277;1018519;-65
2023/09/17 11:49:02;;;;;;;9.20;3.20;;;;;;;36.13;30.66;99177.58;67819;1277;1018131;-66
2023/09/17 11:52:05;;;;;;;11.00;3.60;;;;;;;34.78;31.57;99175.67;67801;1278;1016481;-65
2023/09/17 11:55:11;;;;;;;11.20;3.40;;;;;;;34.25;32.46;99173.55;67842;1277;1016672;-66
2023/09/17 11:58:14;;;;;;;10.50;3.60;;;;;;;34.88;33.41;99170.56;67852;1278;1016512;-66
2023/09/17 12:01:16;;;;;;;8.90;3.50;;;;;;;35.64;31.96;99162.05;67839;1277;1016868;-65
2023/09/17 12:04:19;;;;;;;10.70;3.50;;;;;;;35.67;31.56;99160.63;67810;1277;1016297;-65
2023/09/17 12:07:21;;;;;;;10.60;3.40;;;;;;;35.96;31.73;99161.44;67810;1278;1016500;-65
2023/09/17 12:10:37;;;;;;;10.80;3.40;;;;;;;36.43;31.20;99162.27;67845;1278;1016579;-66
2023/09/17 12:13:39;;;;;;;9.00;3.20;;;;;;;35.66;30.08;99163.89;67811;1277;1015956;-65
2023/09/17 12:16:41;;;;;;;11.80;3.70;;;;;;;35.13;31.69;99163.13;67850;1277;1016391;-65
2023/09/17 12:19:45;;;;;;;12.50;3.90;;;;;;;35.02;31.30;99158.48;67853;1277;1016556;-63
2023/09/17 12:22:48;;;;;;;8.80;3.60;;;;;;;34.71;31.74;99160.46;67861;1278;1016465;-66
2023/09/17 12:25:50;;;;;;;11.60;3.60;;;;;;;34.95;31.37;99153.89;67827;1278;1016456;-65
2023/09/17 12:28:52;;;;;;;9.10;3.20;;;;;;;34.83;31.55;99153.22;67833;1277;1017896;-66
2023/09/17 12:31:55;;;;;;;14.00;3.80;;;;;;;34.39;32.16;99152.65;67787;1278;1016466;-65
2023/09/17 12:34:57;;;;;;;12.80;3.50;;;;;;;33.83;32.37;99150.38;67841;1277;1016826;-66
2023/09/17 12:38:00;;;;;;;9.50;3.70;;;;;;;33.57;33.13;99145.89;67854;1277;1016339;-64
2023/09/17 12:41:03;;;;;;;14.20;3.50;;;;;;;33.58;33.72;99145.55;67796;1277;1015825;-63
2023/09/17 12:44:05;;;;;;;10.90;3.60;;;;;;;33.51;33.62;99147.63;67772;1278;1016428;-65
2023/09/17 12:47:07;;;;;;;9.90;3.40;;;;;;;33.37;33.59;99144.23;67844;1277;1016411;-64
2023/09/17 12:50:10;;;;;;;10.60;3.50;;;;;;;33.20;33.64;99142.90;67852;1277;1016297;-64
2023/09/17 12:53:12;;;;;;;12.10;3.30;;;;;;;33.15;34.06;99140.31;67841;1278;1016414;-66
2023/09/17 12:56:15;;;;;;;10.20;3.60;;;;;;;33.30;34.00;99137.61;67800;1278;1016450;-66
2023/09/17 12:59:17;;;;;;;11.00;3.60;;;;;;;33.27;34.00;99143.18;67783;1278;1016804;-64
2023/09/17 13:02:20;;;;;;;9.40;3.30;;;;;;;33.31;34.15;99140.06;67857;1278;1015998;-66
2023/09/17 13:05:22;;;;;;;9.10;3.40;;;;;;;33.17;34.12;99144.98;67841;1277;1016487;-65
2023/09/17 13:08:27;;;;;;;10.20;3.30;;;;;;;33.12;33.96;99139.95;67854;1277;1015746;-64
2023/09/17 13:11:29;;;;;;;12.80;3.50;;;;;;;33.33;34.12;99138.77;67803;1277;1016926;-65
2023/09/17 13:14:32;;;;;;;11.60;3.50;;;;;;;33.27;33.91;99139.02;67804;1277;1016481;-66
2023/09/17 13:17:34;;;;;;;9.40;3.50;;;;;;;33.31;34.48;99141.98;67857;1277;1016129;-66
2023/09/17 13:20:36;;;;;;;9.10;3.40;;;;;;;33.48;34.64;99144.13;67822;1277;1017868;-66
2023/09/17 13:23:39;;;;;;;11.40;3.30;;;;;;;33.41;34.75;99141.45;67820;1277;1016015;-65
2023/09/17 13:26:41;;;;;;;10.60;3.20;;;;;;;33.22;34.23;99140.38;67823;1277;1016160;-65
2023/09/17 13:29:44;;;;;;;12.20;3.60;;;;;;;33.18;34.98;99140.05;67810;1277;1016456;-64
2023/09/17 13:32:46;;;;;;;13.50;3.50;;;;;;;33.18;34.66;99136.80;67812;1277;1016488;-64
2023/09/17 13:35:50;;;;;;;8.80;3.40;;;;;;;33.24;35.59;99137.65;67867;1277;1016259;-64
2023/09/17 13:38:54;;;;;;;14.00;3.90;;;;;;;33.32;34.52;99139.21;67848;1277;1016464;-66
2023/09/17 13:41:57;;;;;;;8.00;3.10;;;;;;;33.29;34.66;99139.05;67827;1277;1016490;-65
2023/09/17 13:44:59;;;;;;;12.70;3.50;;;;;;;33.07;35.06;99137.71;67845;1277;1016115;-64
2023/09/17 13:48:02;;;;;;;8.00;3.40;;;;;;;33.13;35.02;99137.11;67826;1277;1016501;-65
2023/09/17 13:51:05;;;;;;;9.00;3.50;;;;;;;33.09;34.66;99138.80;67814;1277;1016344;-65
2023/09/17 13:54:07;;;;;;;12.60;3.60;;;;;;;33.12;34.72;99138.92;67809;1277;1016122;-65
2023/09/17 13:57:10;;;;;;;12.10;3.70;;;;;;;33.18;34.70;99135.11;67858;1277;1017048;-65
2023/09/17 14:00:12;;;;;;;14.60;4.00;;;;;;;33.67;34.71;99136.14;67829;1277;1016486;-65
2023/09/17 14:03:14;;;;;;;10.20;3.30;;;;;;;34.07;34.39;99135.72;67837;1277;1016420;-65